sensor_id;sensor_type;location;lat;lon;timestamp;P1;durP1;ratioP1;P2;durP2;ratioP2
66212;SDS011;53015;50.046;8.238;2024-01-15T00:00:28;17.52;;;7.28;;
66212;SDS011;53015;50.046;8.238;2024-01-15T00:02:54;17.63;;;7.15;;
66212;SDS011;53015;50.046;8.238;2024-01-15T00:05:19;14.95;;;6.68;;
66212;SDS011;53015;50.046;8.238;2024-01-15T00:07:45;18.60;;;7.43;;
66212;SDS011;53015;50.046;8.238;2024-01-15T00:10:10;18.95;;;7.22;;
66212;SDS011;53015;50.046;8.238;2024-01-15T00:12:37;16.80;;;6.47;;
66212;SDS011;53015;50.046;8.238;2024-01-15T00:15:03;16.23;;;6.53;;
66212;SDS011;53015;50.046;8.238;2024-01-15T00:17:29;16.65;;;6.65;;
66212;SDS011;53015;50.046;8.238;2024-01-15T00:19:55;17.30;;;6.97;;
66212;SDS011;53015;50.046;8.238;2024-01-15T00:22:20;18.52;;;7.07;;
66212;SDS011;53015;50.046;8.238;2024-01-15T00:24:46;19.15;;;7.03;;
66212;SDS011;53015;50.046;8.238;2024-01-15T00:27:11;16.13;;;6.75;;
66212;SDS011;53015;50.046;8.238;2024-01-15T00:29:38;16.40;;;7.40;;
66212;SDS011;53015;50.046;8.238;2024-01-15T00:32:04;17.30;;;7.07;;
66212;SDS011;53015;50.046;8.238;2024-01-15T00:34:30;18.60;;;6.57;;
66212;SDS011;53015;50.046;8.238;2024-01-15T00:36:55;14.77;;;6.28;;
66212;SDS011;53015;50.046;8.238;2024-01-15T00:39:20;21.80;;;7.18;;
66212;SDS011;53015;50.046;8.238;2024-01-15T00:41:46;16.75;;;6.40;;
66212;SDS011;53015;50.046;8.238;2024-01-15T00:44:11;19.05;;;6.72;;
66212;SDS011;53015;50.046;8.238;2024-01-15T00:46:43;15.38;;;6.53;;
66212;SDS011;53015;50.046;8.238;2024-01-15T00:49:09;16.13;;;6.15;;
66212;SDS011;53015;50.046;8.238;2024-01-15T00:51:34;18.85;;;7.43;;
66212;SDS011;53015;50.046;8.238;2024-01-15T00:54:00;17.48;;;6.55;;
66212;SDS011;53015;50.046;8.238;2024-01-15T00:56:25;12.40;;;4.10;;
66212;SDS011;53015;50.046;8.238;2024-01-15T00:58:50;18.63;;;6.78;;
66212;SDS011;53015;50.046;8.238;2024-01-15T01:01:16;17.17;;;6.85;;
66212;SDS011;53015;50.046;8.238;2024-01-15T01:03:43;20.90;;;6.78;;
66212;SDS011;53015;50.046;8.238;2024-01-15T01:06:08;16.15;;;6.28;;
66212;SDS011;53015;50.046;8.238;2024-01-15T01:08:34;13.00;;;5.13;;
66212;SDS011;53015;50.046;8.238;2024-01-15T01:10:59;14.50;;;5.93;;
66212;SDS011;53015;50.046;8.238;2024-01-15T01:13:25;17.85;;;6.95;;
66212;SDS011;53015;50.046;8.238;2024-01-15T01:15:50;15.02;;;6.68;;
66212;SDS011;53015;50.046;8.238;2024-01-15T01:18:16;21.75;;;7.85;;
66212;SDS011;53015;50.046;8.238;2024-01-15T01:20:43;17.23;;;6.85;;
66212;SDS011;53015;50.046;8.238;2024-01-15T01:23:08;17.10;;;6.45;;
66212;SDS011;53015;50.046;8.238;2024-01-15T01:25:34;17.10;;;7.35;;
66212;SDS011;53015;50.046;8.238;2024-01-15T01:27:59;17.58;;;6.97;;
66212;SDS011;53015;50.046;8.238;2024-01-15T01:30:25;18.27;;;7.22;;
66212;SDS011;53015;50.046;8.238;2024-01-15T01:32:50;16.08;;;6.95;;
66212;SDS011;53015;50.046;8.238;2024-01-15T01:35:16;16.35;;;6.53;;
66212;SDS011;53015;50.046;8.238;2024-01-15T01:37:43;20.08;;;6.38;;
66212;SDS011;53015;50.046;8.238;2024-01-15T01:40:09;18.33;;;5.80;;
66212;SDS011;53015;50.046;8.238;2024-01-15T01:42:35;14.60;;;6.13;;
66212;SDS011;53015;50.046;8.238;2024-01-15T01:45:00;17.88;;;6.85;;
66212;SDS011;53015;50.046;8.238;2024-01-15T01:47:26;15.18;;;6.28;;
66212;SDS011;53015;50.046;8.238;2024-01-15T01:49:51;15.32;;;6.40;;
66212;SDS011;53015;50.046;8.238;2024-01-15T01:52:17;14.00;;;5.70;;
66212;SDS011;53015;50.046;8.238;2024-01-15T01:54:45;18.08;;;7.28;;
66212;SDS011;53015;50.046;8.238;2024-01-15T01:57:10;18.52;;;6.70;;
66212;SDS011;53015;50.046;8.238;2024-01-15T01:59:37;18.38;;;6.47;;
66212;SDS011;53015;50.046;8.238;2024-01-15T02:02:03;16.40;;;6.07;;
66212;SDS011;53015;50.046;8.238;2024-01-15T02:04:29;17.23;;;6.72;;
66212;SDS011;53015;50.046;8.238;2024-01-15T02:06:56;18.65;;;7.38;;
66212;SDS011;53015;50.046;8.238;2024-01-15T02:09:22;19.35;;;7.60;;
66212;SDS011;53015;50.046;8.238;2024-01-15T02:11:48;19.40;;;6.38;;
66212;SDS011;53015;50.046;8.238;2024-01-15T02:14:14;18.85;;;6.22;;
66212;SDS011;53015;50.046;8.238;2024-01-15T02:16:40;15.57;;;6.28;;
66212;SDS011;53015;50.046;8.238;2024-01-15T02:19:06;18.02;;;7.50;;
66212;SDS011;53015;50.046;8.238;2024-01-15T02:21:31;15.82;;;6.40;;
66212;SDS011;53015;50.046;8.238;2024-01-15T02:23:59;14.32;;;6.28;;
66212;SDS011;53015;50.046;8.238;2024-01-15T02:26:24;17.80;;;6.78;;
66212;SDS011;53015;50.046;8.238;2024-01-15T02:28:50;16.40;;;6.53;;
66212;SDS011;53015;50.046;8.238;2024-01-15T02:31:16;19.35;;;6.68;;
66212;SDS011;53015;50.046;8.238;2024-01-15T02:33:42;16.95;;;6.68;;
66212;SDS011;53015;50.046;8.238;2024-01-15T02:36:07;21.52;;;6.72;;
66212;SDS011;53015;50.046;8.238;2024-01-15T02:38:34;19.40;;;7.07;;
66212;SDS011;53015;50.046;8.238;2024-01-15T02:41:01;17.02;;;6.65;;
66212;SDS011;53015;50.046;8.238;2024-01-15T02:43:26;14.05;;;5.65;;
66212;SDS011;53015;50.046;8.238;2024-01-15T02:45:52;16.08;;;6.20;;
66212;SDS011;53015;50.046;8.238;2024-01-15T02:48:17;16.15;;;6.10;;
66212;SDS011;53015;50.046;8.238;2024-01-15T02:50:43;18.13;;;6.30;;
66212;SDS011;53015;50.046;8.238;2024-01-15T02:53:09;13.32;;;6.03;;
66212;SDS011;53015;50.046;8.238;2024-01-15T02:55:34;17.77;;;6.45;;
66212;SDS011;53015;50.046;8.238;2024-01-15T02:58:01;15.18;;;6.10;;
66212;SDS011;53015;50.046;8.238;2024-01-15T03:00:28;17.33;;;6.22;;
66212;SDS011;53015;50.046;8.238;2024-01-15T03:02:54;14.00;;;6.07;;
66212;SDS011;53015;50.046;8.238;2024-01-15T03:05:20;14.57;;;6.03;;
66212;SDS011;53015;50.046;8.238;2024-01-15T03:07:45;16.67;;;5.95;;
66212;SDS011;53015;50.046;8.238;2024-01-15T03:10:11;16.48;;;6.40;;
66212;SDS011;53015;50.046;8.238;2024-01-15T03:12:36;16.10;;;5.75;;
66212;SDS011;53015;50.046;8.238;2024-01-15T03:15:04;14.43;;;5.90;;
66212;SDS011;53015;50.046;8.238;2024-01-15T03:17:30;16.67;;;5.75;;
66212;SDS011;53015;50.046;8.238;2024-01-15T03:19:56;12.57;;;4.82;;
66212;SDS011;53015;50.046;8.238;2024-01-15T03:22:21;14.60;;;5.85;;
66212;SDS011;53015;50.046;8.238;2024-01-15T03:24:47;13.88;;;6.00;;
66212;SDS011;53015;50.046;8.238;2024-01-15T03:27:13;22.00;;;6.90;;
66212;SDS011;53015;50.046;8.238;2024-01-15T03:29:39;14.50;;;5.18;;
66212;SDS011;53015;50.046;8.238;2024-01-15T03:32:07;16.75;;;6.07;;
66212;SDS011;53015;50.046;8.238;2024-01-15T03:34:32;14.23;;;5.80;;
66212;SDS011;53015;50.046;8.238;2024-01-15T03:36:58;14.05;;;5.90;;
66212;SDS011;53015;50.046;8.238;2024-01-15T03:39:23;14.02;;;5.57;;
66212;SDS011;53015;50.046;8.238;2024-01-15T03:41:49;17.85;;;6.10;;
66212;SDS011;53015;50.046;8.238;2024-01-15T03:44:14;16.50;;;6.35;;
66212;SDS011;53015;50.046;8.238;2024-01-15T03:46:40;16.17;;;5.07;;
66212;SDS011;53015;50.046;8.238;2024-01-15T03:49:08;16.15;;;6.20;;
66212;SDS011;53015;50.046;8.238;2024-01-15T03:51:35;13.20;;;5.35;;
66212;SDS011;53015;50.046;8.238;2024-01-15T03:54:01;14.27;;;5.75;;
66212;SDS011;53015;50.046;8.238;2024-01-15T03:56:26;17.98;;;6.30;;
66212;SDS011;53015;50.046;8.238;2024-01-15T03:58:52;12.40;;;5.63;;
66212;SDS011;53015;50.046;8.238;2024-01-15T04:01:17;16.25;;;6.28;;
66212;SDS011;53015;50.046;8.238;2024-01-15T04:03:43;15.73;;;5.30;;
66212;SDS011;53015;50.046;8.238;2024-01-15T04:06:09;17.98;;;6.47;;
66212;SDS011;53015;50.046;8.238;2024-01-15T04:08:35;16.42;;;6.00;;
66212;SDS011;53015;50.046;8.238;2024-01-15T04:11:00;14.05;;;5.97;;
66212;SDS011;53015;50.046;8.238;2024-01-15T04:13:26;18.50;;;6.25;;
66212;SDS011;53015;50.046;8.238;2024-01-15T04:15:51;16.02;;;6.10;;
66212;SDS011;53015;50.046;8.238;2024-01-15T04:18:17;18.17;;;6.68;;
66212;SDS011;53015;50.046;8.238;2024-01-15T04:20:43;17.17;;;6.43;;
66212;SDS011;53015;50.046;8.238;2024-01-15T04:23:09;15.45;;;6.78;;
66212;SDS011;53015;50.046;8.238;2024-01-15T04:25:35;18.85;;;6.10;;
66212;SDS011;53015;50.046;8.238;2024-01-15T04:28:00;16.13;;;6.40;;
66212;SDS011;53015;50.046;8.238;2024-01-15T04:30:26;20.63;;;6.30;;
66212;SDS011;53015;50.046;8.238;2024-01-15T04:32:51;18.67;;;6.15;;
66212;SDS011;53015;50.046;8.238;2024-01-15T04:35:18;18.48;;;6.00;;
66212;SDS011;53015;50.046;8.238;2024-01-15T04:37:44;16.98;;;6.10;;
66212;SDS011;53015;50.046;8.238;2024-01-15T04:40:11;16.75;;;6.80;;
66212;SDS011;53015;50.046;8.238;2024-01-15T04:42:37;16.73;;;6.85;;
66212;SDS011;53015;50.046;8.238;2024-01-15T04:45:02;15.02;;;5.95;;
66212;SDS011;53015;50.046;8.238;2024-01-15T04:47:28;13.77;;;6.10;;
66212;SDS011;53015;50.046;8.238;2024-01-15T04:49:54;16.35;;;5.97;;
66212;SDS011;53015;50.046;8.238;2024-01-15T04:52:19;16.63;;;6.50;;
66212;SDS011;53015;50.046;8.238;2024-01-15T04:54:45;17.83;;;6.50;;
66212;SDS011;53015;50.046;8.238;2024-01-15T04:57:12;14.65;;;5.63;;
66212;SDS011;53015;50.046;8.238;2024-01-15T04:59:37;17.00;;;6.97;;
66212;SDS011;53015;50.046;8.238;2024-01-15T05:02:03;15.90;;;6.13;;
66212;SDS011;53015;50.046;8.238;2024-01-15T05:04:28;14.40;;;5.82;;
66212;SDS011;53015;50.046;8.238;2024-01-15T05:06:54;17.85;;;6.20;;
66212;SDS011;53015;50.046;8.238;2024-01-15T05:09:20;12.88;;;5.97;;
66212;SDS011;53015;50.046;8.238;2024-01-15T05:11:46;17.55;;;6.30;;
66212;SDS011;53015;50.046;8.238;2024-01-15T05:14:12;15.85;;;6.38;;
66212;SDS011;53015;50.046;8.238;2024-01-15T05:16:38;16.83;;;6.20;;
66212;SDS011;53015;50.046;8.238;2024-01-15T05:19:03;19.98;;;6.78;;
66212;SDS011;53015;50.046;8.238;2024-01-15T05:21:29;17.02;;;6.05;;
66212;SDS011;53015;50.046;8.238;2024-01-15T05:23:54;15.73;;;6.32;;
66212;SDS011;53015;50.046;8.238;2024-01-15T05:26:20;11.65;;;5.65;;
66212;SDS011;53015;50.046;8.238;2024-01-15T05:28:45;13.65;;;5.78;;
66212;SDS011;53015;50.046;8.238;2024-01-15T05:31:12;14.52;;;6.43;;
66212;SDS011;53015;50.046;8.238;2024-01-15T05:33:37;16.92;;;6.25;;
66212;SDS011;53015;50.046;8.238;2024-01-15T05:36:03;17.52;;;6.97;;
66212;SDS011;53015;50.046;8.238;2024-01-15T05:38:29;14.98;;;6.00;;
66212;SDS011;53015;50.046;8.238;2024-01-15T05:40:55;20.58;;;6.82;;
66212;SDS011;53015;50.046;8.238;2024-01-15T05:43:20;17.08;;;7.25;;
66212;SDS011;53015;50.046;8.238;2024-01-15T05:45:46;17.33;;;6.97;;
66212;SDS011;53015;50.046;8.238;2024-01-15T05:48:12;17.88;;;6.78;;
66212;SDS011;53015;50.046;8.238;2024-01-15T05:50:38;16.55;;;6.35;;
66212;SDS011;53015;50.046;8.238;2024-01-15T05:53:04;16.73;;;6.82;;
66212;SDS011;53015;50.046;8.238;2024-01-15T05:55:29;18.13;;;6.60;;
66212;SDS011;53015;50.046;8.238;2024-01-15T05:57:55;23.75;;;6.85;;
66212;SDS011;53015;50.046;8.238;2024-01-15T06:00:20;14.43;;;6.15;;
66212;SDS011;53015;50.046;8.238;2024-01-15T06:02:46;21.88;;;7.25;;
66212;SDS011;53015;50.046;8.238;2024-01-15T06:05:12;18.88;;;6.88;;
66212;SDS011;53015;50.046;8.238;2024-01-15T06:07:38;16.83;;;7.07;;
66212;SDS011;53015;50.046;8.238;2024-01-15T06:10:04;17.77;;;6.65;;
66212;SDS011;53015;50.046;8.238;2024-01-15T06:12:30;22.48;;;7.10;;
66212;SDS011;53015;50.046;8.238;2024-01-15T06:14:56;15.95;;;7.07;;
66212;SDS011;53015;50.046;8.238;2024-01-15T06:17:21;17.83;;;6.88;;
66212;SDS011;53015;50.046;8.238;2024-01-15T06:19:47;18.67;;;6.65;;
66212;SDS011;53015;50.046;8.238;2024-01-15T06:22:13;13.60;;;6.43;;
66212;SDS011;53015;50.046;8.238;2024-01-15T06:24:39;13.60;;;5.85;;
66212;SDS011;53015;50.046;8.238;2024-01-15T06:27:04;13.50;;;6.18;;
66212;SDS011;53015;50.046;8.238;2024-01-15T06:29:30;16.85;;;6.57;;
66212;SDS011;53015;50.046;8.238;2024-01-15T06:31:55;19.52;;;6.93;;
66212;SDS011;53015;50.046;8.238;2024-01-15T06:34:21;18.42;;;6.20;;
66212;SDS011;53015;50.046;8.238;2024-01-15T06:36:46;16.67;;;6.05;;
66212;SDS011;53015;50.046;8.238;2024-01-15T06:39:13;14.98;;;6.90;;
66212;SDS011;53015;50.046;8.238;2024-01-15T06:41:39;15.65;;;6.38;;
66212;SDS011;53015;50.046;8.238;2024-01-15T06:44:04;18.42;;;6.97;;
66212;SDS011;53015;50.046;8.238;2024-01-15T06:46:29;19.08;;;6.80;;
66212;SDS011;53015;50.046;8.238;2024-01-15T06:48:55;16.75;;;6.55;;
66212;SDS011;53015;50.046;8.238;2024-01-15T06:51:20;17.50;;;7.00;;
66212;SDS011;53015;50.046;8.238;2024-01-15T06:53:46;16.58;;;6.97;;
66212;SDS011;53015;50.046;8.238;2024-01-15T06:56:13;18.85;;;6.85;;
66212;SDS011;53015;50.046;8.238;2024-01-15T06:58:38;14.98;;;6.28;;
66212;SDS011;53015;50.046;8.238;2024-01-15T07:01:04;16.95;;;6.25;;
66212;SDS011;53015;50.046;8.238;2024-01-15T07:03:29;18.42;;;6.90;;
66212;SDS011;53015;50.046;8.238;2024-01-15T07:05:55;20.25;;;6.68;;
66212;SDS011;53015;50.046;8.238;2024-01-15T07:08:20;17.92;;;7.20;;
66212;SDS011;53015;50.046;8.238;2024-01-15T07:10:46;18.92;;;7.80;;
66212;SDS011;53015;50.046;8.238;2024-01-15T07:13:13;16.90;;;6.65;;
66212;SDS011;53015;50.046;8.238;2024-01-15T07:15:38;17.63;;;6.65;;
66212;SDS011;53015;50.046;8.238;2024-01-15T07:18:04;13.48;;;6.43;;
66212;SDS011;53015;50.046;8.238;2024-01-15T07:20:30;16.58;;;6.80;;
66212;SDS011;53015;50.046;8.238;2024-01-15T07:22:55;20.05;;;7.05;;
66212;SDS011;53015;50.046;8.238;2024-01-15T07:25:21;17.55;;;6.80;;
66212;SDS011;53015;50.046;8.238;2024-01-15T07:27:47;22.83;;;7.20;;
66212;SDS011;53015;50.046;8.238;2024-01-15T07:30:14;16.45;;;6.95;;
66212;SDS011;53015;50.046;8.238;2024-01-15T07:32:39;15.32;;;6.50;;
66212;SDS011;53015;50.046;8.238;2024-01-15T07:35:05;20.27;;;6.93;;
66212;SDS011;53015;50.046;8.238;2024-01-15T07:37:30;18.95;;;7.85;;
66212;SDS011;53015;50.046;8.238;2024-01-15T07:39:56;18.95;;;7.60;;
66212;SDS011;53015;50.046;8.238;2024-01-15T07:42:21;17.60;;;7.90;;
66212;SDS011;53015;50.046;8.238;2024-01-15T07:44:47;18.17;;;7.53;;
66212;SDS011;53015;50.046;8.238;2024-01-15T07:47:14;18.65;;;7.53;;
66212;SDS011;53015;50.046;8.238;2024-01-15T07:49:39;16.35;;;6.70;;
66212;SDS011;53015;50.046;8.238;2024-01-15T07:52:05;17.60;;;6.70;;
66212;SDS011;53015;50.046;8.238;2024-01-15T07:54:30;17.60;;;6.85;;
66212;SDS011;53015;50.046;8.238;2024-01-15T07:56:56;17.83;;;6.80;;
66212;SDS011;53015;50.046;8.238;2024-01-15T07:59:22;18.90;;;7.57;;
66212;SDS011;53015;50.046;8.238;2024-01-15T08:01:48;15.13;;;6.93;;
66212;SDS011;53015;50.046;8.238;2024-01-15T08:04:14;17.42;;;7.18;;
66212;SDS011;53015;50.046;8.238;2024-01-15T08:06:40;17.52;;;6.90;;
66212;SDS011;53015;50.046;8.238;2024-01-15T08:09:06;15.25;;;7.07;;
66212;SDS011;53015;50.046;8.238;2024-01-15T08:11:31;23.15;;;7.78;;
66212;SDS011;53015;50.046;8.238;2024-01-15T08:13:57;16.95;;;6.90;;
66212;SDS011;53015;50.046;8.238;2024-01-15T08:16:22;17.25;;;7.28;;
66212;SDS011;53015;50.046;8.238;2024-01-15T08:18:48;16.38;;;6.97;;
66212;SDS011;53015;50.046;8.238;2024-01-15T08:21:15;16.65;;;7.30;;
66212;SDS011;53015;50.046;8.238;2024-01-15T08:23:40;15.95;;;6.70;;
66212;SDS011;53015;50.046;8.238;2024-01-15T08:26:06;16.88;;;7.70;;
66212;SDS011;53015;50.046;8.238;2024-01-15T08:28:31;17.35;;;6.85;;
66212;SDS011;53015;50.046;8.238;2024-01-15T08:30:57;19.48;;;6.85;;
66212;SDS011;53015;50.046;8.238;2024-01-15T08:33:23;17.90;;;7.38;;
66212;SDS011;53015;50.046;8.238;2024-01-15T08:35:48;16.08;;;6.63;;
66212;SDS011;53015;50.046;8.238;2024-01-15T08:38:15;15.35;;;6.75;;
66212;SDS011;53015;50.046;8.238;2024-01-15T08:40:40;16.80;;;7.28;;
66212;SDS011;53015;50.046;8.238;2024-01-15T08:43:06;13.93;;;6.85;;
66212;SDS011;53015;50.046;8.238;2024-01-15T08:45:32;15.88;;;6.78;;
66212;SDS011;53015;50.046;8.238;2024-01-15T08:47:57;15.68;;;6.45;;
66212;SDS011;53015;50.046;8.238;2024-01-15T08:50:23;14.98;;;6.57;;
66212;SDS011;53015;50.046;8.238;2024-01-15T08:52:48;15.93;;;6.05;;
66212;SDS011;53015;50.046;8.238;2024-01-15T08:55:15;16.38;;;7.53;;
66212;SDS011;53015;50.046;8.238;2024-01-15T08:57:41;18.15;;;7.47;;
66212;SDS011;53015;50.046;8.238;2024-01-15T09:00:06;19.75;;;7.85;;
66212;SDS011;53015;50.046;8.238;2024-01-15T09:02:33;16.40;;;6.95;;
66212;SDS011;53015;50.046;8.238;2024-01-15T09:04:58;19.25;;;7.35;;
66212;SDS011;53015;50.046;8.238;2024-01-15T09:07:24;14.57;;;6.47;;
66212;SDS011;53015;50.046;8.238;2024-01-15T09:09:49;13.57;;;5.82;;
66212;SDS011;53015;50.046;8.238;2024-01-15T09:12:16;16.35;;;6.53;;
66212;SDS011;53015;50.046;8.238;2024-01-15T09:14:42;18.58;;;6.75;;
66212;SDS011;53015;50.046;8.238;2024-01-15T09:17:07;14.32;;;6.97;;
66212;SDS011;53015;50.046;8.238;2024-01-15T09:19:33;15.20;;;6.35;;
66212;SDS011;53015;50.046;8.238;2024-01-15T09:21:58;12.63;;;5.97;;
66212;SDS011;53015;50.046;8.238;2024-01-15T09:24:24;14.73;;;6.35;;
66212;SDS011;53015;50.046;8.238;2024-01-15T09:26:49;15.93;;;7.10;;
66212;SDS011;53015;50.046;8.238;2024-01-15T09:29:18;15.60;;;6.63;;
66212;SDS011;53015;50.046;8.238;2024-01-15T09:31:43;14.27;;;6.10;;
66212;SDS011;53015;50.046;8.238;2024-01-15T09:34:09;16.63;;;7.28;;
66212;SDS011;53015;50.046;8.238;2024-01-15T09:36:38;17.67;;;8.13;;
66212;SDS011;53015;50.046;8.238;2024-01-15T09:39:04;14.77;;;6.85;;
66212;SDS011;53015;50.046;8.238;2024-01-15T09:41:30;17.52;;;7.28;;
66212;SDS011;53015;50.046;8.238;2024-01-15T09:43:56;15.40;;;6.65;;
66212;SDS011;53015;50.046;8.238;2024-01-15T09:46:23;14.18;;;6.60;;
66212;SDS011;53015;50.046;8.238;2024-01-15T09:48:49;13.05;;;6.35;;
66212;SDS011;53015;50.046;8.238;2024-01-15T09:51:14;13.65;;;6.07;;
66212;SDS011;53015;50.046;8.238;2024-01-15T09:53:41;14.80;;;5.72;;
66212;SDS011;53015;50.046;8.238;2024-01-15T09:56:07;12.73;;;5.80;;
66212;SDS011;53015;50.046;8.238;2024-01-15T09:58:35;13.35;;;5.78;;
66212;SDS011;53015;50.046;8.238;2024-01-15T10:01:02;14.70;;;6.57;;
66212;SDS011;53015;50.046;8.238;2024-01-15T10:03:29;12.77;;;6.07;;
66212;SDS011;53015;50.046;8.238;2024-01-15T10:05:57;12.82;;;6.28;;
66212;SDS011;53015;50.046;8.238;2024-01-15T10:08:24;13.80;;;5.70;;
66212;SDS011;53015;50.046;8.238;2024-01-15T10:10:50;11.23;;;5.85;;
66212;SDS011;53015;50.046;8.238;2024-01-15T10:13:16;11.35;;;5.88;;
66212;SDS011;53015;50.046;8.238;2024-01-15T10:15:44;13.93;;;6.10;;
66212;SDS011;53015;50.046;8.238;2024-01-15T10:18:10;12.05;;;6.15;;
66212;SDS011;53015;50.046;8.238;2024-01-15T10:20:37;12.98;;;5.32;;
66212;SDS011;53015;50.046;8.238;2024-01-15T10:23:04;11.60;;;5.50;;
66212;SDS011;53015;50.046;8.238;2024-01-15T10:25:30;15.10;;;6.25;;
66212;SDS011;53015;50.046;8.238;2024-01-15T10:27:59;12.35;;;5.85;;
66212;SDS011;53015;50.046;8.238;2024-01-15T10:30:26;13.90;;;5.68;;
66212;SDS011;53015;50.046;8.238;2024-01-15T10:32:57;15.23;;;6.20;;
66212;SDS011;53015;50.046;8.238;2024-01-15T10:35:23;12.85;;;6.50;;
66212;SDS011;53015;50.046;8.238;2024-01-15T10:37:53;11.55;;;5.55;;
66212;SDS011;53015;50.046;8.238;2024-01-15T10:40:18;12.73;;;5.80;;
66212;SDS011;53015;50.046;8.238;2024-01-15T10:42:44;11.63;;;5.88;;
66212;SDS011;53015;50.046;8.238;2024-01-15T10:45:10;13.68;;;6.35;;
66212;SDS011;53015;50.046;8.238;2024-01-15T10:47:35;12.60;;;5.95;;
66212;SDS011;53015;50.046;8.238;2024-01-15T10:50:01;12.05;;;5.45;;
66212;SDS011;53015;50.046;8.238;2024-01-15T10:52:27;9.93;;;5.70;;
66212;SDS011;53015;50.046;8.238;2024-01-15T10:54:54;13.38;;;6.28;;
66212;SDS011;53015;50.046;8.238;2024-01-15T10:57:22;12.27;;;5.30;;
66212;SDS011;53015;50.046;8.238;2024-01-15T10:59:49;12.95;;;6.15;;
66212;SDS011;53015;50.046;8.238;2024-01-15T11:02:15;11.57;;;5.57;;
66212;SDS011;53015;50.046;8.238;2024-01-15T11:04:41;10.43;;;5.57;;
66212;SDS011;53015;50.046;8.238;2024-01-15T11:07:06;12.32;;;5.63;;
66212;SDS011;53015;50.046;8.238;2024-01-15T11:09:32;11.13;;;5.50;;
66212;SDS011;53015;50.046;8.238;2024-01-15T11:12:08;12.52;;;5.55;;
66212;SDS011;53015;50.046;8.238;2024-01-15T11:14:38;11.82;;;5.53;;
66212;SDS011;53015;50.046;8.238;2024-01-15T11:17:05;10.80;;;6.05;;
66212;SDS011;53015;50.046;8.238;2024-01-15T11:19:38;13.82;;;5.65;;
66212;SDS011;53015;50.046;8.238;2024-01-15T11:22:07;11.73;;;5.10;;
66212;SDS011;53015;50.046;8.238;2024-01-15T11:24:37;12.95;;;5.60;;
66212;SDS011;53015;50.046;8.238;2024-01-15T11:27:04;10.27;;;5.35;;
66212;SDS011;53015;50.046;8.238;2024-01-15T11:29:32;10.10;;;5.18;;
66212;SDS011;53015;50.046;8.238;2024-01-15T11:32:02;10.90;;;5.07;;
66212;SDS011;53015;50.046;8.238;2024-01-15T11:34:50;9.93;;;5.22;;
66212;SDS011;53015;50.046;8.238;2024-01-15T11:37:19;9.57;;;4.75;;
66212;SDS011;53015;50.046;8.238;2024-01-15T11:39:45;16.75;;;5.55;;
66212;SDS011;53015;50.046;8.238;2024-01-15T11:42:13;10.52;;;4.90;;
66212;SDS011;53015;50.046;8.238;2024-01-15T11:44:40;9.15;;;4.43;;
66212;SDS011;53015;50.046;8.238;2024-01-15T11:47:07;8.43;;;4.80;;
66212;SDS011;53015;50.046;8.238;2024-01-15T11:49:40;10.23;;;5.47;;
66212;SDS011;53015;50.046;8.238;2024-01-15T11:52:31;8.82;;;4.55;;
66212;SDS011;53015;50.046;8.238;2024-01-15T11:55:00;8.90;;;4.90;;
66212;SDS011;53015;50.046;8.238;2024-01-15T11:57:29;11.18;;;5.35;;
66212;SDS011;53015;50.046;8.238;2024-01-15T12:00:04;10.68;;;4.95;;
66212;SDS011;53015;50.046;8.238;2024-01-15T12:02:30;10.50;;;4.63;;
66212;SDS011;53015;50.046;8.238;2024-01-15T12:04:56;10.77;;;5.00;;
66212;SDS011;53015;50.046;8.238;2024-01-15T12:07:22;12.88;;;5.15;;
66212;SDS011;53015;50.046;8.238;2024-01-15T12:09:47;8.48;;;4.43;;
66212;SDS011;53015;50.046;8.238;2024-01-15T12:12:13;7.55;;;4.38;;
66212;SDS011;53015;50.046;8.238;2024-01-15T12:14:46;8.43;;;4.78;;
66212;SDS011;53015;50.046;8.238;2024-01-15T12:17:13;8.70;;;4.28;;
66212;SDS011;53015;50.046;8.238;2024-01-15T12:19:38;9.73;;;4.53;;
66212;SDS011;53015;50.046;8.238;2024-01-15T12:22:05;8.35;;;4.68;;
66212;SDS011;53015;50.046;8.238;2024-01-15T12:24:30;7.97;;;4.32;;
66212;SDS011;53015;50.046;8.238;2024-01-15T12:26:56;10.77;;;4.53;;
66212;SDS011;53015;50.046;8.238;2024-01-15T12:29:21;11.35;;;4.88;;
66212;SDS011;53015;50.046;8.238;2024-01-15T12:31:47;9.73;;;4.53;;
66212;SDS011;53015;50.046;8.238;2024-01-15T12:34:14;7.53;;;4.07;;
66212;SDS011;53015;50.046;8.238;2024-01-15T12:36:40;7.55;;;4.32;;
66212;SDS011;53015;50.046;8.238;2024-01-15T12:39:05;9.90;;;4.15;;
66212;SDS011;53015;50.046;8.238;2024-01-15T12:41:31;8.35;;;4.15;;
66212;SDS011;53015;50.046;8.238;2024-01-15T12:43:56;8.07;;;3.90;;
66212;SDS011;53015;50.046;8.238;2024-01-15T12:46:23;9.50;;;4.75;;
66212;SDS011;53015;50.046;8.238;2024-01-15T12:48:48;7.82;;;4.05;;
66212;SDS011;53015;50.046;8.238;2024-01-15T12:51:16;8.07;;;4.43;;
66212;SDS011;53015;50.046;8.238;2024-01-15T12:53:41;8.95;;;4.30;;
66212;SDS011;53015;50.046;8.238;2024-01-15T12:56:06;7.97;;;3.58;;
66212;SDS011;53015;50.046;8.238;2024-01-15T12:58:32;10.45;;;4.53;;
66212;SDS011;53015;50.046;8.238;2024-01-15T13:00:57;7.28;;;3.78;;
66212;SDS011;53015;50.046;8.238;2024-01-15T13:03:23;7.78;;;4.32;;
66212;SDS011;53015;50.046;8.238;2024-01-15T13:05:48;8.23;;;4.13;;
66212;SDS011;53015;50.046;8.238;2024-01-15T13:08:16;8.65;;;4.00;;
66212;SDS011;53015;50.046;8.238;2024-01-15T13:10:41;7.25;;;3.97;;
66212;SDS011;53015;50.046;8.238;2024-01-15T13:13:07;11.40;;;4.53;;
66212;SDS011;53015;50.046;8.238;2024-01-15T13:15:32;10.73;;;4.60;;
66212;SDS011;53015;50.046;8.238;2024-01-15T13:17:58;7.88;;;4.03;;
66212;SDS011;53015;50.046;8.238;2024-01-15T13:20:23;11.85;;;4.10;;
66212;SDS011;53015;50.046;8.238;2024-01-15T13:22:49;7.20;;;3.75;;
66212;SDS011;53015;50.046;8.238;2024-01-15T13:25:16;8.88;;;4.35;;
66212;SDS011;53015;50.046;8.238;2024-01-15T13:27:41;7.75;;;3.65;;
66212;SDS011;53015;50.046;8.238;2024-01-15T13:30:07;9.88;;;4.10;;
66212;SDS011;53015;50.046;8.238;2024-01-15T13:32:33;6.95;;;3.88;;
66212;SDS011;53015;50.046;8.238;2024-01-15T13:34:59;8.43;;;4.07;;
66212;SDS011;53015;50.046;8.238;2024-01-15T13:37:25;7.35;;;3.78;;
66212;SDS011;53015;50.046;8.238;2024-01-15T13:39:50;7.93;;;3.60;;
66212;SDS011;53015;50.046;8.238;2024-01-15T13:42:17;5.95;;;3.70;;
66212;SDS011;53015;50.046;8.238;2024-01-15T13:44:42;8.95;;;4.25;;
66212;SDS011;53015;50.046;8.238;2024-01-15T13:47:08;7.55;;;3.90;;
66212;SDS011;53015;50.046;8.238;2024-01-15T13:49:33;8.90;;;4.15;;
66212;SDS011;53015;50.046;8.238;2024-01-15T13:51:59;7.90;;;4.18;;
66212;SDS011;53015;50.046;8.238;2024-01-15T13:54:24;6.93;;;3.78;;
66212;SDS011;53015;50.046;8.238;2024-01-15T13:56:50;8.88;;;3.60;;
66212;SDS011;53015;50.046;8.238;2024-01-15T13:59:17;8.52;;;3.50;;
66212;SDS011;53015;50.046;8.238;2024-01-15T14:01:42;7.55;;;3.17;;
66212;SDS011;53015;50.046;8.238;2024-01-15T14:04:07;5.75;;;3.58;;
66212;SDS011;53015;50.046;8.238;2024-01-15T14:06:33;6.05;;;3.28;;
66212;SDS011;53015;50.046;8.238;2024-01-15T14:08:58;5.75;;;3.08;;
66212;SDS011;53015;50.046;8.238;2024-01-15T14:11:24;6.28;;;3.63;;
66212;SDS011;53015;50.046;8.238;2024-01-15T14:13:49;6.28;;;3.50;;
66212;SDS011;53015;50.046;8.238;2024-01-15T14:16:16;6.75;;;3.17;;
66212;SDS011;53015;50.046;8.238;2024-01-15T14:18:42;7.53;;;3.45;;
66212;SDS011;53015;50.046;8.238;2024-01-15T14:21:07;9.20;;;3.70;;
66212;SDS011;53015;50.046;8.238;2024-01-15T14:23:33;6.22;;;3.30;;
66212;SDS011;53015;50.046;8.238;2024-01-15T14:25:58;7.07;;;3.28;;
66212;SDS011;53015;50.046;8.238;2024-01-15T14:28:24;7.18;;;3.50;;